Time;durP1;ratioP1;P1;durP2;ratioP2;P2;SDS_P1;SDS_P2;PMS_P1;PMS_P2;Temp;Humidity;BMP_temperature;BMP_pressure;BME280_temperature;BME280_humidity;BME280_pressure;Samples;Min_cycle;Max_cycle;Signal;HPM_P1;HPM_P2
2022/09/15 00:02:00;;;;;;;6.03;1.70;;;18.80;99.90;;;;;;5013588;28;20211;-77
2022/09/15 00:04:25;;;;;;;7.90;1.97;;;18.80;99.90;;;;;;5031726;28;20189;-78
2022/09/15 00:06:51;;;;;;;4.33;1.80;;;18.80;99.90;;;;;;5031552;28;20559;-78
2022/09/15 00:09:17;;;;;;;4.03;1.83;;;18.70;99.90;;;;;;5031379;28;20263;-78
2022/09/15 00:11:43;;;;;;;3.13;2.20;;;18.60;99.90;;;;;;5031498;28;20465;-77
2022/09/15 00:14:08;;;;;;;6.90;2.10;;;18.60;99.90;;;;;;5029918;28;20208;-76
2022/09/15 00:16:34;;;;;;;4.87;3.13;;;18.50;99.90;;;;;;5031416;28;20710;-76
2022/09/15 00:19:00;;;;;;;2.27;1.63;;;18.50;99.90;;;;;;5031224;28;20188;-77
2022/09/15 00:21:30;;;;;;;5.73;1.40;;;18.40;99.90;;;;;;5030929;28;20204;-76
2022/09/15 00:23:57;;;;;;;2.50;1.73;;;18.40;99.90;;;;;;5030634;28;20964;-77
2022/09/15 00:26:25;;;;;;;3.93;2.00;;;18.40;99.90;;;;;;5029267;28;20500;-76
2022/09/15 00:28:50;;;;;;;5.33;1.60;;;18.40;99.90;;;;;;5029339;28;20843;-76
2022/09/15 00:31:19;;;;;;;2.47;1.60;;;18.30;99.90;;;;;;5030845;28;20415;-77
2022/09/15 00:33:53;;;;;;;9.80;1.60;;;18.30;99.90;;;;;;5031493;28;20536;-77
2022/09/15 00:36:19;;;;;;;4.53;1.80;;;18.40;99.90;;;;;;5029741;28;20412;-77
2022/09/15 00:38:45;;;;;;;6.73;1.60;;;18.40;99.90;;;;;;5031060;28;20472;-77
2022/09/15 00:41:13;;;;;;;3.27;2.07;;;18.40;99.90;;;;;;5029771;28;20420;-76
2022/09/15 00:43:51;;;;;;;3.97;1.50;;;18.40;99.90;;;;;;5029555;28;20443;-76
2022/09/15 00:46:29;;;;;;;3.97;1.87;;;18.30;99.90;;;;;;5029573;28;20951;-77
2022/09/15 00:49:10;;;;;;;6.17;1.57;;;18.30;99.90;;;;;;5030843;28;20954;-77
2022/09/15 00:51:39;;;;;;;7.00;1.50;;;18.30;99.90;;;;;;5029683;28;20431;-77
2022/09/15 00:54:11;;;;;;;3.87;1.50;;;18.40;99.90;;;;;;5029644;28;20425;-78
2022/09/15 00:56:40;;;;;;;4.53;1.70;;;18.40;99.90;;;;;;5029790;28;20438;-79
2022/09/15 00:59:12;;;;;;;3.50;1.50;;;18.40;99.90;;;;;;5029360;28;20433;-78
2022/09/15 01:01:39;;;;;;;2.67;1.20;;;18.50;99.90;;;;;;5029056;28;20505;-80
2022/09/15 01:04:05;;;;;;;2.53;1.50;;;18.50;99.90;;;;;;5029151;28;20498;-80
2022/09/15 01:06:36;;;;;;;2.87;1.40;;;18.50;99.90;;;;;;5028605;28;20445;-79
2022/09/15 01:09:13;;;;;;;2.97;1.77;;;18.40;99.90;;;;;;5012514;28;20227;-79
2022/09/15 01:11:40;;;;;;;1.60;1.50;;;18.40;99.90;;;;;;5030219;28;20432;-79
2022/09/15 01:14:05;;;;;;;2.57;1.30;;;18.40;99.90;;;;;;5030388;28;20427;-80
2022/09/15 01:16:40;;;;;;;1.77;1.27;;;18.50;99.90;;;;;;5012611;28;20852;-77
2022/09/15 01:19:32;;;;;;;3.00;1.20;;;18.60;99.90;;;;;;5030339;28;20636;-79
2022/09/15 01:22:31;;;;;;;5.87;1.50;;;18.60;99.90;;;;;;5029021;28;20529;-79
2022/09/15 01:25:07;;;;;;;4.13;1.53;;;18.60;99.90;;;;;;5030458;28;20414;-80
2022/09/15 01:27:56;;;;;;;3.43;1.37;;;18.60;99.90;;;;;;5012710;28;20482;-77
2022/09/15 01:30:23;;;;;;;1.53;1.43;;;18.70;99.90;;;;;;5030509;28;20404;-79
2022/09/15 01:33:10;;;;;;;5.90;1.53;;;18.70;99.90;;;;;;5012984;28;20470;-80
2022/09/15 01:35:50;;;;;;;4.37;1.67;;;18.70;99.90;;;;;;5030258;28;20410;-81
2022/09/15 01:38:37;;;;;;;4.90;1.33;;;18.70;99.90;;;;;;5030645;28;20429;-80
2022/09/15 01:41:29;;;;;;;3.37;1.13;;;18.70;99.90;;;;;;5054497;28;20423;-80
2022/09/15 01:44:23;;;;;;;2.23;1.17;;;18.70;99.90;;;;;;5050086;28;20474;-80
2022/09/15 01:46:53;;;;;;;3.40;1.33;;;18.70;99.90;;;;;;5039901;28;20435;-80
2022/09/15 01:49:23;;;;;;;1.47;1.20;;;18.80;99.90;;;;;;5032823;28;20427;-80
2022/09/15 01:51:51;;;;;;;1.10;0.97;;;18.80;99.90;;;;;;5013816;28;20453;-80
2022/09/15 01:54:21;;;;;;;3.40;1.10;;;18.80;99.90;;;;;;5030067;28;20423;-81
2022/09/15 01:56:47;;;;;;;2.13;1.10;;;18.80;99.90;;;;;;5030076;28;21221;-81
2022/09/15 01:59:12;;;;;;;2.60;1.43;;;18.90;99.90;;;;;;5031292;28;20429;-80
2022/09/15 02:01:46;;;;;;;2.13;1.30;;;18.90;99.90;;;;;;4997076;28;20447;-81
2022/09/15 02:04:30;;;;;;;3.57;1.13;;;18.90;99.90;;;;;;5030136;28;20182;-81
2022/09/15 02:07:30;;;;;;;4.70;1.30;;;19.00;99.90;;;;;;5028595;28;20419;-79
2022/09/15 02:10:17;;;;;;;7.03;1.23;;;19.00;99.90;;;;;;5028368;28;20472;-79
2022/09/15 02:12:57;;;;;;;2.10;1.10;;;19.00;99.90;;;;;;5027717;28;20469;-80
2022/09/15 02:15:32;;;;;;;2.93;1.10;;;18.90;99.90;;;;;;5027884;28;20919;-79
2022/09/15 02:18:04;;;;;;;3.23;1.00;;;18.90;99.90;;;;;;5027805;28;20438;-79
2022/09/15 02:20:37;;;;;;;4.17;0.90;;;18.90;99.90;;;;;;5029215;28;20444;-79
2022/09/15 02:23:19;;;;;;;1.73;1.03;;;18.90;99.90;;;;;;5028948;28;20525;-81
2022/09/15 02:25:50;;;;;;;2.97;1.27;;;18.90;99.90;;;;;;5027496;28;20881;-81
2022/09/15 02:28:20;;;;;;;3.43;1.20;;;18.90;99.90;;;;;;5027418;28;20478;-81
2022/09/15 02:30:48;;;;;;;4.50;0.90;;;18.90;99.90;;;;;;5028911;28;20465;-80
2022/09/15 02:33:18;;;;;;;1.50;0.83;;;18.80;99.90;;;;;;4994719;28;20486;-81
2022/09/15 02:35:44;;;;;;;2.27;1.40;;;18.80;99.90;;;;;;5029065;28;20407;-81
2022/09/15 02:38:11;;;;;;;3.37;0.90;;;18.80;99.90;;;;;;5027726;28;20792;-80
2022/09/15 02:40:41;;;;;;;1.73;1.30;;;18.80;99.90;;;;;;5027333;28;20800;-80
2022/09/15 02:43:13;;;;;;;4.07;1.33;;;18.70;99.90;;;;;;5028553;28;20491;-80
2022/09/15 02:45:39;;;;;;;3.27;1.20;;;18.70;99.90;;;;;;5012134;28;20423;-81
2022/09/15 02:48:08;;;;;;;2.80;1.40;;;18.70;99.90;;;;;;5027190;28;20899;-79
2022/09/15 02:50:34;;;;;;;2.73;1.20;;;18.70;99.90;;;;;;5029177;28;20935;-79
2022/09/15 02:53:00;;;;;;;2.83;0.90;;;18.70;99.90;;;;;;5010865;28;20454;-79
2022/09/15 02:55:28;;;;;;;4.93;1.07;;;18.70;99.90;;;;;;5029045;28;20431;-80
2022/09/15 02:57:57;;;;;;;2.40;1.13;;;18.60;99.90;;;;;;5011067;28;20188;-79
2022/09/15 03:00:24;;;;;;;1.70;1.10;;;18.60;99.90;;;;;;5027450;28;20526;-78
2022/09/15 03:02:52;;;;;;;3.23;0.90;;;18.50;99.90;;;;;;5028746;28;21024;-79
2022/09/15 03:05:21;;;;;;;2.50;1.20;;;18.50;99.90;;;;;;5010814;28;20501;-79
2022/09/15 03:07:47;;;;;;;1.00;0.80;;;18.50;99.90;;;;;;5027067;28;20564;-78
2022/09/15 03:10:13;;;;;;;3.50;1.20;;;18.50;99.90;;;;;;5027375;28;20430;-78
2022/09/15 03:12:45;;;;;;;1.50;0.83;;;18.40;99.90;;;;;;5010640;28;20967;-79
2022/09/15 03:15:12;;;;;;;1.90;1.10;;;18.50;99.90;;;;;;5029518;28;20419;-77
2022/09/15 03:17:40;;;;;;;3.73;0.83;;;18.50;99.90;;;;;;5030777;28;20442;-78
2022/09/15 03:20:07;;;;;;;2.60;0.80;;;18.50;99.90;;;;;;5030518;28;20952;-79
2022/09/15 03:22:33;;;;;;;2.50;0.90;;;18.50;99.90;;;;;;5030378;28;20452;-79
2022/09/15 03:25:00;;;;;;;4.90;0.90;;;18.50;99.90;;;;;;5031698;28;20480;-79
2022/09/15 03:27:26;;;;;;;2.63;0.93;;;18.50;99.90;;;;;;5030531;28;20470;-80
2022/09/15 03:29:52;;;;;;;1.93;1.17;;;18.50;99.90;;;;;;5031530;28;20425;-80
2022/09/15 03:32:17;;;;;;;2.40;0.80;;;18.50;99.90;;;;;;5030449;28;20465;-78
2022/09/15 03:34:43;;;;;;;1.67;1.13;;;18.50;99.90;;;;;;5031773;28;20900;-77
2022/09/15 03:37:09;;;;;;;2.00;0.93;;;18.50;99.90;;;;;;5031844;28;20199;-77
2022/09/15 03:39:34;;;;;;;1.67;0.90;;;18.40;99.90;;;;;;5030198;28;20286;-78
2022/09/15 03:42:00;;;;;;;3.10;0.93;;;18.50;99.90;;;;;;5031667;28;20218;-77
2022/09/15 03:44:25;;;;;;;3.13;1.10;;;18.50;99.90;;;;;;5031817;28;20191;-77
2022/09/15 03:46:51;;;;;;;1.40;1.07;;;18.50;99.90;;;;;;5030244;28;20198;-78
2022/09/15 03:49:17;;;;;;;1.23;0.90;;;18.40;99.90;;;;;;5030139;28;20193;-78
2022/09/15 03:51:43;;;;;;;4.70;0.93;;;18.40;99.90;;;;;;5031270;28;20545;-78
2022/09/15 03:54:09;;;;;;;1.30;0.90;;;18.40;99.90;;;;;;5031364;28;20193;-78
2022/09/15 03:56:35;;;;;;;2.70;0.90;;;18.40;99.90;;;;;;5031622;28;20423;-79
2022/09/15 03:59:02;;;;;;;2.90;1.10;;;18.40;99.90;;;;;;5013466;28;20435;-78
2022/09/15 04:01:29;;;;;;;2.00;1.20;;;18.40;99.90;;;;;;5031401;28;20198;-78
2022/09/15 04:03:55;;;;;;;4.23;1.27;;;18.40;99.90;;;;;;5029792;28;20430;-79
2022/09/15 04:06:21;;;;;;;4.10;1.00;;;18.40;99.90;;;;;;5031196;28;20418;-77
2022/09/15 04:08:51;;;;;;;6.53;1.43;;;18.30;99.90;;;;;;5030812;28;20952;-78
2022/09/15 04:11:18;;;;;;;1.97;1.00;;;18.40;99.90;;;;;;5029604;28;20444;-78
2022/09/15 04:13:44;;;;;;;4.27;1.10;;;18.30;99.90;;;;;;5031167;28;20531;-78
2022/09/15 04:16:12;;;;;;;1.47;0.90;;;18.40;99.90;;;;;;5029427;28;20431;-78
2022/09/15 04:18:39;;;;;;;2.90;0.90;;;18.30;99.90;;;;;;5029016;28;20462;-77
2022/09/15 04:21:14;;;;;;;1.63;0.77;;;18.30;99.90;;;;;;5029005;28;20427;-77
2022/09/15 04:23:41;;;;;;;1.73;1.10;;;18.30;99.90;;;;;;5031301;28;20446;-76
2022/09/15 04:26:30;;;;;;;1.93;1.00;;;18.30;99.90;;;;;;5028722;28;20495;-77
2022/09/15 04:28:56;;;;;;;2.30;0.90;;;18.30;99.90;;;;;;5030291;28;20513;-77
2022/09/15 04:31:21;;;;;;;2.37;0.77;;;18.30;99.90;;;;;;5012431;28;20434;-77
2022/09/15 04:33:50;;;;;;;3.93;1.07;;;18.30;99.90;;;;;;5030551;28;20795;-77
2022/09/15 04:36:21;;;;;;;1.50;1.00;;;18.20;99.90;;;;;;5030679;28;20268;-77
2022/09/15 04:38:48;;;;;;;1.27;0.90;;;18.30;99.90;;;;;;5030398;28;20440;-77
2022/09/15 04:41:14;;;;;;;7.23;1.37;;;18.30;99.90;;;;;;5029973;28;20883;-76
2022/09/15 04:43:42;;;;;;;4.63;0.93;;;18.20;99.90;;;;;;5027814;28;20530;-77
2022/09/15 04:46:08;;;;;;;1.40;0.73;;;18.30;99.90;;;;;;5028946;28;20431;-76
2022/09/15 04:48:34;;;;;;;1.13;1.00;;;18.20;99.90;;;;;;5028974;28;20498;-77
2022/09/15 04:51:06;;;;;;;1.57;1.13;;;18.20;99.90;;;;;;5028786;28;20500;-76
2022/09/15 04:53:31;;;;;;;7.80;1.20;;;18.20;99.90;;;;;;5028838;28;20537;-76
2022/09/15 04:56:05;;;;;;;1.77;1.00;;;18.20;99.90;;;;;;5010764;28;20607;-77
2022/09/15 04:58:41;;;;;;;2.67;0.93;;;18.20;99.90;;;;;;5027246;28;20203;-76
2022/09/15 05:01:12;;;;;;;1.67;0.90;;;18.20;99.90;;;;;;5026995;28;20514;-76
2022/09/15 05:03:38;;;;;;;3.47;1.00;;;18.20;99.90;;;;;;5028338;28;20449;-76
2022/09/15 05:06:06;;;;;;;3.73;1.13;;;18.30;99.90;;;;;;5028631;28;20543;-76
2022/09/15 05:08:32;;;;;;;3.00;1.10;;;18.20;99.90;;;;;;5028705;28;21045;-77
2022/09/15 05:11:08;;;;;;;2.80;1.30;;;18.20;99.90;;;;;;5028314;28;20510;-76
2022/09/15 05:13:35;;;;;;;4.37;1.10;;;18.20;99.90;;;;;;5028004;28;20224;-76
2022/09/15 05:16:07;;;;;;;7.10;1.27;;;18.20;99.90;;;;;;5028795;28;20429;-76
2022/09/15 05:18:33;;;;;;;2.03;1.40;;;18.20;99.90;;;;;;5026503;28;20437;-77
2022/09/15 05:21:00;;;;;;;6.13;1.10;;;18.10;99.90;;;;;;5028645;28;20969;-77
2022/09/15 05:23:26;;;;;;;1.50;0.90;;;18.10;99.90;;;;;;5029206;28;20560;-77
2022/09/15 05:25:57;;;;;;;1.73;0.90;;;18.10;99.90;;;;;;5026877;28;20504;-77
2022/09/15 05:28:25;;;;;;;5.23;1.10;;;18.00;99.90;;;;;;5026541;28;20850;-76
2022/09/15 05:30:52;;;;;;;3.13;1.20;;;18.00;99.90;;;;;;5028048;28;20414;-76
2022/09/15 05:33:19;;;;;;;1.60;1.00;;;18.00;99.90;;;;;;5028222;28;20447;-76
2022/09/15 05:35:57;;;;;;;3.80;1.23;;;18.00;99.90;;;;;;5027832;28;20432;-77
2022/09/15 05:38:24;;;;;;;3.10;1.20;;;18.00;99.90;;;;;;5026116;28;20468;-77
2022/09/15 05:40:50;;;;;;;3.17;1.20;;;17.90;99.90;;;;;;5027669;28;20541;-77
2022/09/15 05:43:17;;;;;;;1.70;1.20;;;17.90;99.90;;;;;;5027862;28;20879;-76
2022/09/15 05:45:43;;;;;;;1.70;0.97;;;17.80;99.90;;;;;;5028048;28;20434;-77
2022/09/15 05:48:10;;;;;;;2.90;1.47;;;17.80;99.90;;;;;;5028430;28;20474;-77
2022/09/15 05:50:37;;;;;;;1.70;1.03;;;17.70;99.90;;;;;;5026266;28;20448;-77
2022/09/15 05:53:03;;;;;;;1.93;1.00;;;17.70;99.90;;;;;;5027803;28;20470;-77
2022/09/15 05:55:29;;;;;;;1.80;1.30;;;17.60;99.90;;;;;;5026652;28;20477;-77
2022/09/15 05:57:55;;;;;;;1.37;0.80;;;17.50;99.90;;;;;;5027841;28;20417;-77
2022/09/15 06:00:21;;;;;;;2.80;1.27;;;17.50;99.90;;;;;;5026231;28;20435;-77
2022/09/15 06:02:46;;;;;;;1.73;1.23;;;17.50;99.90;;;;;;5028149;28;20209;-77
2022/09/15 06:05:12;;;;;;;3.67;0.87;;;17.40;99.90;;;;;;5028181;28;20545;-78
2022/09/15 06:07:38;;;;;;;1.07;0.90;;;17.30;99.90;;;;;;5028230;28;20210;-78
2022/09/15 06:10:04;;;;;;;3.30;1.00;;;17.30;99.90;;;;;;5026431;28;20304;-76
2022/09/15 06:12:30;;;;;;;5.20;1.33;;;17.10;99.90;;;;;;5026168;28;20210;-78
2022/09/15 06:14:55;;;;;;;3.03;1.10;;;17.10;99.90;;;;;;5026043;28;20426;-77
2022/09/15 06:17:22;;;;;;;2.20;1.00;;;17.00;99.90;;;;;;5026577;28;20194;-77
2022/09/15 06:19:48;;;;;;;2.03;1.07;;;17.00;99.90;;;;;;5026382;28;20223;-78
2022/09/15 06:22:14;;;;;;;0.90;0.60;;;17.00;99.90;;;;;;5010421;28;20830;-77
2022/09/15 06:24:39;;;;;;;2.03;1.13;;;17.00;99.90;;;;;;5028068;28;20426;-77
2022/09/15 06:27:05;;;;;;;4.00;0.90;;;17.00;99.90;;;;;;5028540;28;20520;-77
2022/09/15 06:29:31;;;;;;;3.17;1.03;;;16.90;99.90;;;;;;5028294;28;20667;-78
2022/09/15 06:32:01;;;;;;;1.70;1.40;;;17.00;99.90;;;;;;5028067;28;20294;-77
2022/09/15 06:34:31;;;;;;;2.80;0.80;;;17.00;99.90;;;;;;5028009;28;20450;-77
2022/09/15 06:36:58;;;;;;;2.47;1.10;;;17.10;99.90;;;;;;5028256;28;20465;-77
2022/09/15 06:39:24;;;;;;;1.83;0.90;;;17.00;99.90;;;;;;5028117;28;20476;-77
2022/09/15 06:41:50;;;;;;;3.10;1.17;;;17.10;99.90;;;;;;5027020;28;20446;-77
2022/09/15 06:44:15;;;;;;;1.83;0.80;;;17.10;99.90;;;;;;5028063;28;20178;-77
2022/09/15 06:46:42;;;;;;;3.80;1.30;;;17.10;99.90;;;;;;5027106;28;20667;-77
2022/09/15 06:49:07;;;;;;;1.10;1.00;;;17.10;99.90;;;;;;5028012;28;20218;-76
2022/09/15 06:51:35;;;;;;;2.50;1.10;;;17.20;99.90;;;;;;5032413;28;20997;-77
2022/09/15 06:54:04;;;;;;;1.00;0.80;;;17.20;99.90;;;;;;5033191;28;20602;-77
2022/09/15 06:56:30;;;;;;;1.27;0.80;;;17.20;99.90;;;;;;5032405;28;20406;-77
2022/09/15 06:58:56;;;;;;;3.13;1.13;;;17.20;99.90;;;;;;5032401;28;20420;-77
2022/09/15 07:01:27;;;;;;;1.20;0.90;;;17.30;99.90;;;;;;5032352;28;20423;-77
2022/09/15 07:03:54;;;;;;;1.83;1.07;;;17.30;99.90;;;;;;5032206;28;20202;-78
2022/09/15 07:06:20;;;;;;;3.83;2.13;;;17.40;99.90;;;;;;5032264;28;20423;-77
2022/09/15 07:08:47;;;;;;;1.57;0.80;;;17.40;99.90;;;;;;5032052;28;20474;-77
2022/09/15 07:11:13;;;;;;;2.90;1.10;;;17.50;99.90;;;;;;5032188;28;20418;-77
2022/09/15 07:13:39;;;;;;;1.20;1.10;;;17.40;99.90;;;;;;5014044;28;20465;-78
2022/09/15 07:16:07;;;;;;;1.60;1.00;;;17.50;99.90;;;;;;5032857;28;20979;-78
2022/09/15 07:18:34;;;;;;;1.27;0.80;;;17.60;99.90;;;;;;5032158;28;20454;-77
2022/09/15 07:21:06;;;;;;;3.93;0.93;;;17.60;99.90;;;;;;5030089;28;20426;-77
2022/09/15 07:23:33;;;;;;;1.43;1.00;;;17.60;99.90;;;;;;5029967;28;20453;-77
2022/09/15 07:26:06;;;;;;;1.70;0.90;;;17.70;99.90;;;;;;5031280;28;20425;-77
2022/09/15 07:28:32;;;;;;;3.70;1.07;;;17.80;99.90;;;;;;5031052;28;20458;-77
2022/09/15 07:30:57;;;;;;;5.60;1.40;;;17.90;99.90;;;;;;5029764;28;20434;-77
2022/09/15 07:33:24;;;;;;;1.37;1.00;;;17.80;99.90;;;;;;5031035;28;20442;-77
2022/09/15 07:35:50;;;;;;;4.30;1.20;;;17.90;99.90;;;;;;5031162;28;20315;-77
2022/09/15 07:38:15;;;;;;;3.33;1.27;;;17.90;99.90;;;;;;5029531;28;20508;-77
2022/09/15 07:40:41;;;;;;;4.33;1.37;;;17.90;99.90;;;;;;5031114;28;20192;-76
2022/09/15 07:43:06;;;;;;;3.90;1.23;;;17.90;99.90;;;;;;5029307;28;20573;-77
2022/09/15 07:45:34;;;;;;;3.93;1.50;;;18.00;99.90;;;;;;5030662;28;20186;-77
2022/09/15 07:48:00;;;;;;;3.20;1.63;;;17.90;99.90;;;;;;5030418;28;20219;-77
2022/09/15 07:50:25;;;;;;;3.20;1.80;;;17.90;99.90;;;;;;5028996;28;20454;-77
2022/09/15 07:52:55;;;;;;;4.40;1.20;;;17.90;99.90;;;;;;5012813;28;20243;-77
2022/09/15 07:55:20;;;;;;;2.93;1.23;;;17.90;99.90;;;;;;5030592;28;20226;-77
2022/09/15 07:57:46;;;;;;;2.43;1.20;;;18.00;99.90;;;;;;5030473;28;20424;-77
2022/09/15 08:00:13;;;;;;;2.60;1.07;;;18.00;99.90;;;;;;5028992;28;20737;-76
2022/09/15 08:02:39;;;;;;;3.30;1.40;;;17.90;99.90;;;;;;5029224;28;20214;-77
2022/09/15 08:05:05;;;;;;;3.50;1.77;;;17.90;99.90;;;;;;5028816;28;20526;-76
2022/09/15 08:07:31;;;;;;;6.03;1.43;;;17.90;99.90;;;;;;5029867;28;20786;-76
2022/09/15 08:09:56;;;;;;;1.80;0.90;;;18.00;99.90;;;;;;5030144;28;20419;-76
2022/09/15 08:12:22;;;;;;;4.03;1.70;;;18.10;99.90;;;;;;5029872;28;20219;-76
2022/09/15 08:14:48;;;;;;;4.33;1.30;;;18.00;99.90;;;;;;5028676;28;20278;-77
2022/09/15 08:17:13;;;;;;;2.20;1.30;;;18.00;99.90;;;;;;5012185;28;20195;-77
2022/09/15 08:19:39;;;;;;;2.63;1.17;;;18.00;99.90;;;;;;5029839;28;20216;-77
2022/09/15 08:22:04;;;;;;;1.73;1.10;;;18.10;99.90;;;;;;5029862;28;20235;-77
2022/09/15 08:24:30;;;;;;;1.57;1.17;;;18.10;99.90;;;;;;5029720;28;20257;-76
2022/09/15 08:26:56;;;;;;;1.90;0.90;;;18.00;99.90;;;;;;5028199;28;20184;-77
2022/09/15 08:29:21;;;;;;;2.50;1.17;;;18.00;99.90;;;;;;5029452;28;20213;-77
2022/09/15 08:31:47;;;;;;;1.93;1.07;;;18.10;99.90;;;;;;5028074;28;20603;-76
2022/09/15 08:34:15;;;;;;;5.60;1.00;;;18.10;99.90;;;;;;5029824;28;20689;-76
2022/09/15 08:36:41;;;;;;;2.53;1.07;;;18.10;99.90;;;;;;5030757;28;20494;-76
2022/09/15 08:39:07;;;;;;;2.07;1.20;;;18.10;99.90;;;;;;5033652;28;20437;-76
2022/09/15 08:41:43;;;;;;;1.30;0.80;;;18.10;99.90;;;;;;5032401;28;21164;-76
2022/09/15 08:44:34;;;;;;;2.60;0.97;;;18.00;99.90;;;;;;5031355;28;20432;-76
2022/09/15 08:47:22;;;;;;;2.47;0.93;;;18.10;99.90;;;;;;5032461;28;20434;-76
2022/09/15 08:50:10;;;;;;;3.43;1.20;;;18.20;99.90;;;;;;5032546;28;20431;-76
2022/09/15 08:52:59;;;;;;;1.17;0.70;;;18.20;99.90;;;;;;5032983;28;20437;-76
2022/09/15 08:55:48;;;;;;;1.80;1.20;;;18.20;99.90;;;;;;5032206;28;21045;-76
2022/09/15 08:58:17;;;;;;;5.17;0.70;;;18.20;99.90;;;;;;5034777;28;20423;-77
2022/09/15 09:00:46;;;;;;;1.63;0.73;;;18.20;99.90;;;;;;5054794;28;20421;-77
2022/09/15 09:03:30;;;;;;;2.03;0.80;;;18.20;99.90;;;;;;5054040;28;20430;-78
2022/09/15 09:06:07;;;;;;;3.23;1.03;;;18.20;99.90;;;;;;5044099;28;20419;-77
2022/09/15 09:08:41;;;;;;;5.53;1.03;;;18.20;99.90;;;;;;5033032;28;20458;-76
2022/09/15 09:11:16;;;;;;;1.10;0.60;;;18.30;99.90;;;;;;5030567;28;20420;-76
2022/09/15 09:13:52;;;;;;;1.20;0.80;;;18.50;99.90;;;;;;5028957;28;20514;-77
2022/09/15 09:16:39;;;;;;;1.00;0.80;;;18.60;99.90;;;;;;5029381;28;20472;-76
2022/09/15 09:19:36;;;;;;;1.30;0.60;;;18.80;99.90;;;;;;5029090;28;20415;-77
2022/09/15 09:22:12;;;;;;;1.30;0.80;;;18.70;99.90;;;;;;5028889;28;20892;-76
2022/09/15 09:24:50;;;;;;;0.90;0.70;;;18.60;99.90;;;;;;5026775;28;20551;-77
2022/09/15 09:27:20;;;;;;;0.83;0.53;;;18.60;99.90;;;;;;5028492;28;20421;-76
2022/09/15 09:29:59;;;;;;;0.80;0.60;;;18.60;99.90;;;;;;5027338;28;20518;-76
2022/09/15 09:32:39;;;;;;;1.70;1.00;;;18.60;99.90;;;;;;5028469;28;20445;-76
2022/09/15 09:35:30;;;;;;;1.13;0.60;;;18.70;99.90;;;;;;5026810;28;21014;-76
2022/09/15 09:37:58;;;;;;;1.77;0.70;;;18.80;99.90;;;;;;5028204;28;20469;-76
2022/09/15 09:40:25;;;;;;;1.00;0.60;;;18.80;99.90;;;;;;5028281;28;21026;-76
2022/09/15 09:42:50;;;;;;;0.90;0.60;;;18.90;99.90;;;;;;5028230;28;20947;-76
2022/09/15 09:45:18;;;;;;;1.30;0.93;;;19.00;99.90;;;;;;5028211;28;20513;-75
2022/09/15 09:47:45;;;;;;;4.93;0.60;;;19.00;99.90;;;;;;5026882;28;20324;-77
2022/09/15 09:50:32;;;;;;;1.30;1.07;;;19.10;99.90;;;;;;5026617;28;20438;-77
2022/09/15 09:52:58;;;;;;;2.30;0.63;;;18.90;99.90;;;;;;5028302;28;20472;-76
2022/09/15 09:55:26;;;;;;;1.77;1.00;;;19.00;99.90;;;;;;5028390;28;20438;-76
2022/09/15 09:57:53;;;;;;;1.20;0.80;;;19.10;99.90;;;;;;5026618;28;20192;-76
2022/09/15 10:00:34;;;;;;;1.70;0.80;;;19.10;99.90;;;;;;5027765;28;20415;-75
2022/09/15 10:03:16;;;;;;;2.60;0.90;;;19.30;99.90;;;;;;5028167;28;20490;-77
2022/09/15 10:05:43;;;;;;;1.00;0.70;;;19.40;99.90;;;;;;5027857;28;20840;-77
2022/09/15 10:08:18;;;;;;;0.90;0.70;;;19.40;99.90;;;;;;5026340;28;20478;-77
2022/09/15 10:10:58;;;;;;;1.10;1.00;;;19.50;99.90;;;;;;5027496;28;20614;-77
2022/09/15 10:13:23;;;;;;;5.63;0.83;;;19.70;99.90;;;;;;5026769;28;20461;-77
2022/09/15 10:15:52;;;;;;;1.27;0.60;;;19.80;99.90;;;;;;5009213;28;20430;-78
2022/09/15 10:18:33;;;;;;;0.97;0.87;;;20.00;99.90;;;;;;5025611;28;20553;-78
2022/09/15 10:21:02;;;;;;;1.57;0.60;;;20.20;99.90;;;;;;5027130;28;20426;-78
2022/09/15 10:23:32;;;;;;;2.30;0.60;;;20.30;99.90;;;;;;5027122;28;20975;-77
2022/09/15 10:26:28;;;;;;;1.00;0.70;;;20.30;99.90;;;;;;5030943;28;20466;-77
2022/09/15 10:29:17;;;;;;;0.90;0.80;;;20.20;99.90;;;;;;5033517;28;20975;-77
2022/09/15 10:31:44;;;;;;;1.10;1.00;;;20.20;99.90;;;;;;5032005;28;20545;-78
2022/09/15 10:34:29;;;;;;;1.80;0.90;;;20.40;99.90;;;;;;5033755;28;20432;-77
2022/09/15 10:37:29;;;;;;;2.80;0.90;;;20.70;99.90;;;;;;5032238;28;20414;-77
2022/09/15 10:39:58;;;;;;;1.30;1.00;;;21.00;99.90;;;;;;5033627;28;20517;-77
2022/09/15 10:43:12;;;;;;;2.80;1.20;;;21.10;99.90;;;;;;5031924;28;20442;-78
2022/09/15 10:45:41;;;;;;;1.67;1.07;;;20.90;99.90;;;;;;5029912;28;20450;-77
2022/09/15 10:48:25;;;;;;;1.00;0.80;;;20.90;99.90;;;;;;5032018;28;20471;-77
2022/09/15 10:51:14;;;;;;;2.03;1.40;;;20.80;99.90;;;;;;5032527;28;20795;-77
2022/09/15 10:54:01;;;;;;;1.23;0.80;;;20.70;99.90;;;;;;5026251;28;21049;-77
2022/09/15 10:56:35;;;;;;;3.27;1.00;;;20.40;99.90;;;;;;5033538;28;20411;-77
2022/09/15 10:59:20;;;;;;;1.53;1.07;;;20.50;99.90;;;;;;5033666;28;20425;-77
2022/09/15 11:02:09;;;;;;;1.07;1.00;;;20.40;99.90;;;;;;5033527;28;20470;-77
2022/09/15 11:05:04;;;;;;;1.20;0.90;;;20.40;99.90;;;;;;5034050;28;20793;-78
2022/09/15 11:07:41;;;;;;;1.33;1.23;;;20.40;99.90;;;;;;5031791;28;21010;-77
2022/09/15 11:10:45;;;;;;;1.60;1.07;;;20.40;99.90;;;;;;5033430;28;20438;-77
2022/09/15 11:13:32;;;;;;;3.83;1.20;;;20.50;99.90;;;;;;5031555;28;20550;-77
2022/09/15 11:16:32;;;;;;;1.43;0.93;;;20.50;99.90;;;;;;5033174;28;20406;-77
2022/09/15 11:19:20;;;;;;;2.30;1.20;;;20.50;99.90;;;;;;5033459;28;20425;-78
2022/09/15 11:22:17;;;;;;;1.70;1.00;;;20.50;99.90;;;;;;5033353;28;20449;-77
2022/09/15 11:24:59;;;;;;;2.03;1.00;;;20.50;99.90;;;;;;5025245;28;20441;-77
2022/09/15 11:27:48;;;;;;;1.50;1.37;;;20.60;99.90;;;;;;5033106;28;20914;-77
2022/09/15 11:30:18;;;;;;;4.47;1.13;;;20.60;99.90;;;;;;5031388;28;20426;-77
2022/09/15 11:32:55;;;;;;;2.37;1.00;;;20.40;99.90;;;;;;5032910;28;20929;-77
2022/09/15 11:35:36;;;;;;;2.93;1.10;;;20.40;99.90;;;;;;5032847;28;20431;-77
2022/09/15 11:38:23;;;;;;;1.30;1.10;;;20.40;99.90;;;;;;5028242;28;21097;-77
2022/09/15 11:40:57;;;;;;;6.90;1.27;;;20.10;99.90;;;;;;5022319;28;20852;-77
2022/09/15 11:43:34;;;;;;;1.00;0.67;;;19.80;99.90;;;;;;5029561;28;20528;-77
2022/09/15 11:46:04;;;;;;;1.43;0.50;;;19.30;99.90;;;;;;5029597;28;20480;-77
2022/09/15 11:48:56;;;;;;;0.80;0.40;;;18.80;99.90;;;;;;5029330;28;20494;-77
2022/09/15 11:51:25;;;;;;;0.80;0.40;;;18.50;99.90;;;;;;5023728;28;20423;-77
2022/09/15 11:54:19;;;;;;;2.43;0.60;;;18.20;99.90;;;;;;5011286;28;20429;-77
2022/09/15 11:56:46;;;;;;;1.10;0.60;;;17.80;99.90;;;;;;5029224;28;20454;-77
2022/09/15 11:59:44;;;;;;;1.50;0.70;;;17.50;99.90;;;;;;5027866;28;20442;-77
2022/09/15 12:02:31;;;;;;;2.00;1.00;;;17.20;99.90;;;;;;5029283;28;20519;-77
2022/09/15 12:05:23;;;;;;;0.90;0.60;;;17.00;99.90;;;;;;5029264;28;20894;-77
2022/09/15 12:07:55;;;;;;;5.73;1.17;;;16.90;99.90;;;;;;5024671;28;20506;-77
2022/09/15 12:10:36;;;;;;;1.63;0.90;;;16.70;99.90;;;;;;5029615;28;20417;-77
2022/09/15 12:13:03;;;;;;;13.60;2.13;;;16.60;99.90;;;;;;5027634;28;20475;-77
2022/09/15 12:15:29;;;;;;;2.67;0.93;;;16.40;99.90;;;;;;5027852;28;20505;-77
2022/09/15 12:18:26;;;;;;;3.00;1.03;;;16.40;99.90;;;;;;5027896;28;20474;-76
2022/09/15 12:20:57;;;;;;;3.50;1.40;;;16.20;99.90;;;;;;5029602;28;20418;-76
2022/09/15 12:23:33;;;;;;;1.70;1.00;;;16.10;99.90;;;;;;5029149;28;20450;-77
2022/09/15 12:26:19;;;;;;;1.80;1.40;;;16.00;99.90;;;;;;5029213;28;20549;-76
2022/09/15 12:28:57;;;;;;;1.93;1.73;;;15.90;99.90;;;;;;5029298;28;20472;-77
2022/09/15 12:31:38;;;;;;;5.03;1.60;;;15.90;99.90;;;;;;5027542;28;20993;-76
2022/09/15 12:34:29;;;;;;;4.07;2.37;;;15.80;99.90;;;;;;5029024;28;20429;-76
2022/09/15 12:37:13;;;;;;;3.13;2.13;;;15.80;99.90;;;;;;5028977;28;20440;-77
2022/09/15 12:39:41;;;;;;;2.50;2.30;;;15.70;99.90;;;;;;5027422;28;20954;-77
2022/09/15 12:42:09;;;;;;;2.87;2.40;;;15.60;99.90;;;;;;5028903;28;20904;-76
2022/09/15 12:44:49;;;;;;;2.80;2.60;;;15.60;99.90;;;;;;5027561;28;21097;-76
2022/09/15 12:47:24;;;;;;;4.97;3.17;;;15.70;99.90;;;;;;5028499;28;20418;-76
2022/09/15 12:49:51;;;;;;;4.67;2.73;;;15.60;99.90;;;;;;5027546;28;20472;-76
2022/09/15 12:52:20;;;;;;;6.93;2.83;;;15.60;99.90;;;;;;5028763;28;20808;-76
2022/09/15 12:54:53;;;;;;;5.30;2.90;;;15.40;99.90;;;;;;5027046;28;20437;-76
2022/09/15 12:57:27;;;;;;;3.37;3.07;;;15.50;99.90;;;;;;5029572;28;20424;-77
2022/09/15 13:00:32;;;;;;;7.60;3.80;;;15.40;99.90;;;;;;5028915;28;20940;-76
2022/09/15 13:03:00;;;;;;;4.63;4.10;;;15.40;99.90;;;;;;5028934;28;20436;-76
2022/09/15 13:05:41;;;;;;;3.80;3.10;;;15.40;99.90;;;;;;5028854;28;20428;-76
2022/09/15 13:08:30;;;;;;;8.03;2.90;;;15.30;99.90;;;;;;5028638;28;20478;-77
2022/09/15 13:11:09;;;;;;;5.27;4.00;;;15.30;99.90;;;;;;5026599;28;20441;-77
2022/09/15 13:14:06;;;;;;;5.00;3.60;;;15.30;99.90;;;;;;5027153;28;20528;-76
2022/09/15 13:16:46;;;;;;;5.00;3.80;;;15.30;99.90;;;;;;5027138;28;20558;-76